Time;durP1;ratioP1;P1;durP2;ratioP2;P2;SDS_P1;SDS_P2;PMS_P1;PMS_P2;Temp;Humidity;BMP_temperature;BMP_pressure;BME280_temperature;BME280_humidity;BME280_pressure;Samples;Min_cycle;Max_cycle;Signal;HPM_P1;HPM_P2
2023/05/28 00:02:03;;;;;;;17.27;5.50;;;12.10;99.90;;;;;;5115768;28;20113;-72
2023/05/28 00:04:28;;;;;;;18.40;6.33;;;12.10;99.90;;;;;;5097551;28;20120;-73
2023/05/28 00:06:55;;;;;;;20.73;7.03;;;12.10;99.90;;;;;;5116015;28;20483;-72
2023/05/28 00:09:21;;;;;;;15.63;6.00;;;12.10;99.90;;;;;;5116072;28;20120;-72
2023/05/28 00:11:47;;;;;;;13.77;5.53;;;12.10;99.90;;;;;;5080834;28;20289;-72
2023/05/28 00:14:13;;;;;;;16.43;6.10;;;12.10;99.90;;;;;;5097080;28;20285;-72
2023/05/28 00:16:40;;;;;;;17.57;6.70;;;12.10;99.90;;;;;;5115575;28;20066;-73
2023/05/28 00:19:07;;;;;;;19.43;7.10;;;12.10;99.90;;;;;;5094049;28;20434;-72
2023/05/28 00:21:33;;;;;;;13.13;5.87;;;12.10;99.90;;;;;;5076891;28;20793;-72
2023/05/28 00:24:00;;;;;;;19.47;6.13;;;12.10;99.90;;;;;;5095362;28;20282;-73
2023/05/28 00:26:26;;;;;;;17.07;6.20;;;12.10;99.90;;;;;;5095203;28;20278;-72
2023/05/28 00:28:52;;;;;;;15.60;5.97;;;12.10;99.90;;;;;;5095039;28;20297;-72
2023/05/28 00:31:18;;;;;;;15.50;5.33;;;12.00;99.90;;;;;;5094187;28;20290;-72
2023/05/28 00:33:43;;;;;;;17.60;6.07;;;12.10;99.90;;;;;;5094792;28;20668;-72
2023/05/28 00:36:11;;;;;;;15.77;5.50;;;12.10;99.90;;;;;;5094714;28;20051;-72
2023/05/28 00:38:37;;;;;;;16.47;6.37;;;12.20;99.90;;;;;;5094620;28;20036;-72
2023/05/28 00:41:03;;;;;;;14.93;5.60;;;12.20;99.90;;;;;;5095275;28;20282;-72
2023/05/28 00:43:29;;;;;;;16.87;6.10;;;12.20;99.90;;;;;;5094713;28;20083;-75
2023/05/28 00:45:59;;;;;;;18.13;6.40;;;12.20;99.90;;;;;;5093799;28;20071;-72
2023/05/28 00:48:25;;;;;;;20.63;6.80;;;12.30;99.90;;;;;;5094679;28;20270;-72
2023/05/28 00:50:51;;;;;;;15.00;6.33;;;12.40;99.90;;;;;;5093288;28;20270;-72
2023/05/28 00:53:17;;;;;;;19.13;6.80;;;12.30;99.90;;;;;;5093816;28;20450;-71
2023/05/28 00:55:44;;;;;;;17.17;5.87;;;12.20;99.90;;;;;;5094053;28;20043;-72
2023/05/28 00:58:10;;;;;;;21.27;6.27;;;12.20;99.90;;;;;;5076684;28;20725;-72
2023/05/28 01:00:37;;;;;;;21.80;7.10;;;12.10;99.90;;;;;;5094283;28;20270;-72
2023/05/28 01:03:06;;;;;;;19.83;6.70;;;12.00;99.90;;;;;;5094467;28;20274;-72
2023/05/28 01:05:31;;;;;;;16.60;5.90;;;11.90;99.90;;;;;;5094382;28;20634;-75
2023/05/28 01:08:06;;;;;;;16.50;6.57;;;11.90;99.90;;;;;;5094363;28;20282;-71
2023/05/28 01:10:33;;;;;;;17.70;6.38;;;11.90;99.90;;;;;;5094050;28;20495;-74
2023/05/28 01:13:02;;;;;;;21.63;7.10;;;11.80;99.90;;;;;;5093084;28;20085;-71
2023/05/28 01:15:28;;;;;;;19.37;6.70;;;11.80;99.90;;;;;;5094329;28;20353;-71
2023/05/28 01:17:59;;;;;;;17.50;6.20;;;11.80;99.90;;;;;;5094192;28;20389;-72
2023/05/28 01:20:29;;;;;;;13.10;6.37;;;11.80;99.90;;;;;;5096759;28;20055;-71
2023/05/28 01:23:03;;;;;;;18.47;6.77;;;11.80;99.90;;;;;;5114243;28;20293;-72
2023/05/28 01:25:30;;;;;;;18.57;7.20;;;11.80;99.90;;;;;;5114684;28;20269;-72
2023/05/28 01:27:56;;;;;;;18.60;6.83;;;11.80;99.90;;;;;;5114146;28;20309;-72
2023/05/28 01:30:21;;;;;;;19.53;7.17;;;11.70;99.90;;;;;;5096230;28;20316;-72
2023/05/28 01:32:47;;;;;;;19.97;6.63;;;11.70;99.90;;;;;;5079244;28;20126;-72
2023/05/28 01:35:13;;;;;;;18.60;6.70;;;11.70;99.90;;;;;;5114049;28;20067;-72
2023/05/28 01:37:48;;;;;;;20.20;7.00;;;11.70;99.90;;;;;;5113560;28;20077;-73
2023/05/28 01:40:16;;;;;;;18.23;6.65;;;11.70;99.90;;;;;;5096266;28;20376;-73
2023/05/28 01:42:45;;;;;;;20.97;7.30;;;11.70;99.90;;;;;;5113909;28;20047;-73
2023/05/28 01:45:12;;;;;;;20.43;6.50;;;11.70;99.90;;;;;;5114206;28;20281;-72
2023/05/28 01:47:39;;;;;;;17.50;7.53;;;11.70;99.90;;;;;;5096016;28;20278;-73
2023/05/28 01:50:05;;;;;;;21.47;6.43;;;11.60;99.90;;;;;;5114035;28;20277;-72
2023/05/28 01:52:31;;;;;;;22.63;7.47;;;11.60;99.90;;;;;;5113954;28;20749;-72
2023/05/28 01:54:57;;;;;;;16.87;6.90;;;11.70;99.90;;;;;;5095192;28;20274;-73
2023/05/28 01:57:23;;;;;;;19.87;6.80;;;11.70;99.90;;;;;;5095847;28;20180;-72
2023/05/28 01:59:48;;;;;;;19.60;6.07;;;11.70;99.90;;;;;;5113534;28;20050;-73
2023/05/28 02:02:14;;;;;;;13.13;5.97;;;11.70;99.90;;;;;;5095670;28;20044;-72
2023/05/28 02:04:40;;;;;;;16.07;5.70;;;11.70;99.90;;;;;;5113587;28;20050;-73
2023/05/28 02:07:06;;;;;;;20.30;6.33;;;11.70;99.90;;;;;;5113175;28;20122;-72
2023/05/28 02:09:32;;;;;;;17.57;6.00;;;11.60;99.90;;;;;;5078978;28;20055;-72
2023/05/28 02:12:02;;;;;;;21.23;6.73;;;11.70;99.90;;;;;;5113151;28;20617;-72
2023/05/28 02:14:28;;;;;;;17.23;6.37;;;11.70;99.90;;;;;;5079651;28;20495;-72
2023/05/28 02:16:54;;;;;;;14.73;6.50;;;11.70;99.90;;;;;;5095419;28;20765;-73
2023/05/28 02:19:20;;;;;;;16.13;6.00;;;11.70;99.90;;;;;;5078481;28;20320;-72
2023/05/28 02:21:46;;;;;;;16.93;6.13;;;11.70;99.90;;;;;;5113238;28;20047;-73
2023/05/28 02:24:12;;;;;;;20.97;6.20;;;11.70;99.90;;;;;;5095261;28;20289;-72
2023/05/28 02:26:38;;;;;;;16.27;5.53;;;11.60;99.90;;;;;;5095351;28;20273;-72
2023/05/28 02:29:03;;;;;;;21.80;6.63;;;11.60;99.90;;;;;;5095002;28;20489;-73
2023/05/28 02:31:29;;;;;;;15.20;5.73;;;11.60;99.90;;;;;;5095526;28;20055;-72
2023/05/28 02:33:55;;;;;;;15.43;5.77;;;11.60;99.90;;;;;;5078248;28;20180;-73
2023/05/28 02:36:22;;;;;;;17.77;6.43;;;11.60;99.90;;;;;;5113390;28;20130;-72
2023/05/28 02:38:48;;;;;;;23.13;6.37;;;11.60;99.90;;;;;;5094971;28;20134;-73
2023/05/28 02:41:14;;;;;;;17.70;6.10;;;11.60;99.90;;;;;;5113412;28;20674;-72
2023/05/28 02:43:40;;;;;;;16.40;6.00;;;11.50;99.90;;;;;;5078541;28;20284;-72
2023/05/28 02:46:05;;;;;;;16.77;6.17;;;11.50;99.90;;;;;;5095149;28;20087;-72
2023/05/28 02:48:31;;;;;;;19.83;6.07;;;11.50;99.90;;;;;;5095317;28;20055;-72
2023/05/28 02:50:57;;;;;;;20.80;6.73;;;11.50;99.90;;;;;;5112987;28;20058;-73
2023/05/28 02:53:23;;;;;;;17.77;5.83;;;11.50;99.90;;;;;;5112849;28;20499;-73
2023/05/28 02:55:49;;;;;;;17.80;6.07;;;11.50;99.90;;;;;;5112967;28;20126;-73
2023/05/28 02:58:15;;;;;;;17.63;6.37;;;11.50;99.90;;;;;;5113356;28;20297;-72
2023/05/28 03:00:41;;;;;;;19.67;7.07;;;11.50;99.90;;;;;;5095031;28;20287;-73
2023/05/28 03:03:08;;;;;;;17.90;5.90;;;11.50;99.90;;;;;;5095049;28;20044;-72
2023/05/28 03:05:34;;;;;;;14.77;5.63;;;11.50;99.90;;;;;;5113095;28;20277;-73
2023/05/28 03:08:00;;;;;;;17.87;6.30;;;11.50;99.90;;;;;;5112878;28;20360;-72
2023/05/28 03:10:25;;;;;;;20.60;5.97;;;11.50;99.90;;;;;;5112781;28;20372;-72
2023/05/28 03:12:51;;;;;;;17.57;6.23;;;11.50;99.90;;;;;;5112820;28;20211;-73
2023/05/28 03:15:17;;;;;;;17.50;6.40;;;11.50;99.90;;;;;;5113031;28;20043;-73
2023/05/28 03:17:42;;;;;;;14.33;6.20;;;11.50;99.90;;;;;;5095970;28;20126;-73
2023/05/28 03:20:10;;;;;;;17.67;5.83;;;11.50;99.90;;;;;;5116623;28;20067;-73
2023/05/28 03:22:39;;;;;;;20.93;5.83;;;11.50;99.90;;;;;;5117001;28;20456;-73
2023/05/28 03:25:05;;;;;;;19.23;6.17;;;11.50;99.90;;;;;;5098386;28;20372;-73
2023/05/28 03:27:32;;;;;;;17.87;6.73;;;11.40;99.90;;;;;;5116447;28;20800;-73
2023/05/28 03:29:58;;;;;;;15.60;6.70;;;11.50;99.90;;;;;;5081544;28;20341;-73
2023/05/28 03:32:24;;;;;;;18.63;6.37;;;11.40;99.90;;;;;;5098555;28;20309;-73
2023/05/28 03:34:49;;;;;;;18.10;6.23;;;11.50;99.90;;;;;;5098511;28;20047;-72
2023/05/28 03:37:15;;;;;;;15.63;5.47;;;11.50;99.90;;;;;;5116590;28;20278;-73
2023/05/28 03:39:41;;;;;;;19.33;6.97;;;11.50;99.90;;;;;;5098458;28;20047;-73
2023/05/28 03:42:07;;;;;;;15.97;6.20;;;11.40;99.90;;;;;;5097998;28;20047;-73
2023/05/28 03:44:34;;;;;;;17.67;6.23;;;11.50;99.90;;;;;;5116073;28;20048;-73
2023/05/28 03:47:00;;;;;;;19.67;6.53;;;11.40;99.90;;;;;;5098077;28;20052;-73
2023/05/28 03:49:26;;;;;;;21.47;7.10;;;11.40;99.90;;;;;;5081635;28;20293;-73
2023/05/28 03:51:51;;;;;;;18.77;7.23;;;11.50;99.90;;;;;;5116264;28;20273;-73
2023/05/28 03:54:17;;;;;;;17.37;6.70;;;11.40;99.90;;;;;;5098241;28;20130;-72
2023/05/28 03:56:43;;;;;;;14.30;5.90;;;11.40;99.90;;;;;;5098240;28;20083;-72
2023/05/28 03:59:09;;;;;;;22.27;6.83;;;11.40;99.90;;;;;;5097429;28;20032;-73
2023/05/28 04:01:36;;;;;;;17.47;6.53;;;11.40;99.90;;;;;;5116371;28;20047;-72
2023/05/28 04:04:02;;;;;;;17.47;7.10;;;11.40;99.90;;;;;;5097614;28;20629;-72
2023/05/28 04:06:28;;;;;;;15.30;6.33;;;11.40;99.90;;;;;;5116102;28;20378;-72
2023/05/28 04:08:55;;;;;;;19.33;7.20;;;11.40;99.90;;;;;;5097792;28;20682;-73
2023/05/28 04:11:24;;;;;;;15.30;6.77;;;11.40;99.90;;;;;;5097921;28;20472;-72
2023/05/28 04:13:51;;;;;;;15.77;5.77;;;11.40;99.90;;;;;;5097532;28;20377;-72
2023/05/28 04:16:19;;;;;;;16.93;6.53;;;11.50;99.90;;;;;;5097527;28;20315;-72
2023/05/28 04:18:45;;;;;;;18.47;6.37;;;11.50;99.90;;;;;;5115540;28;20354;-72
2023/05/28 04:21:12;;;;;;;17.80;6.83;;;11.50;99.90;;;;;;5115474;28;20277;-73
2023/05/28 04:23:38;;;;;;;15.43;6.40;;;11.50;99.90;;;;;;5097786;28;20057;-73
2023/05/28 04:26:06;;;;;;;18.60;7.50;;;11.60;99.90;;;;;;5097434;28;20281;-73
2023/05/28 04:28:33;;;;;;;16.33;6.00;;;11.60;99.90;;;;;;5115844;28;20044;-73
2023/05/28 04:31:01;;;;;;;17.13;6.80;;;11.60;99.90;;;;;;5096646;28;20695;-73
2023/05/28 04:33:30;;;;;;;13.60;6.90;;;11.70;99.90;;;;;;5097608;28;20285;-73
2023/05/28 04:35:57;;;;;;;13.97;5.53;;;11.70;99.90;;;;;;5115116;28;20780;-73
2023/05/28 04:38:31;;;;;;;15.50;6.73;;;11.80;99.90;;;;;;5115600;28;20327;-73
2023/05/28 04:40:57;;;;;;;14.80;7.43;;;11.80;99.90;;;;;;5097553;28;20293;-73
2023/05/28 04:43:24;;;;;;;14.47;5.60;;;11.90;99.90;;;;;;5096616;28;20277;-73
2023/05/28 04:45:53;;;;;;;16.80;5.40;;;11.90;99.90;;;;;;5097289;28;20277;-73
2023/05/28 04:48:19;;;;;;;18.60;6.80;;;11.90;99.90;;;;;;5097032;28;20297;-73
2023/05/28 04:50:44;;;;;;;21.47;6.43;;;12.00;99.90;;;;;;5115143;28;20621;-73
2023/05/28 04:53:10;;;;;;;21.10;6.67;;;12.00;99.90;;;;;;5114747;28;20048;-73
2023/05/28 04:55:36;;;;;;;14.63;5.67;;;12.10;99.90;;;;;;5115163;28;20047;-73
2023/05/28 04:58:02;;;;;;;12.90;5.83;;;12.00;99.90;;;;;;5114705;28;20048;-73
2023/05/28 05:00:28;;;;;;;15.77;5.40;;;12.10;99.90;;;;;;5114905;28;20376;-73
2023/05/28 05:02:54;;;;;;;15.90;5.90;;;12.10;99.90;;;;;;5114944;28;20040;-73
2023/05/28 05:05:20;;;;;;;16.13;5.60;;;12.10;99.90;;;;;;5114643;28;20043;-72
2023/05/28 05:07:46;;;;;;;16.93;6.80;;;12.20;99.90;;;;;;5115017;28;20130;-73
2023/05/28 05:10:13;;;;;;;17.80;6.33;;;12.30;99.90;;;;;;5079618;28;20369;-72
2023/05/28 05:12:39;;;;;;;16.03;6.50;;;12.30;99.90;;;;;;5114745;28;20104;-72
2023/05/28 05:15:05;;;;;;;15.70;5.70;;;12.50;99.90;;;;;;5113932;28;20273;-73
2023/05/28 05:17:31;;;;;;;19.60;6.40;;;12.60;99.90;;;;;;5114867;28;20047;-72
2023/05/28 05:19:58;;;;;;;17.07;7.23;;;12.70;99.90;;;;;;5079451;28;20286;-72
2023/05/28 05:22:24;;;;;;;16.33;6.57;;;12.90;99.90;;;;;;5114237;28;20317;-72
2023/05/28 05:24:49;;;;;;;15.47;6.60;;;13.00;99.90;;;;;;5114489;28;20284;-72
2023/05/28 05:27:15;;;;;;;15.37;6.00;;;13.10;99.90;;;;;;5114234;28;20273;-72
2023/05/28 05:29:41;;;;;;;16.63;6.30;;;13.30;99.90;;;;;;5096423;28;20391;-72
2023/05/28 05:32:11;;;;;;;17.90;6.13;;;13.40;99.90;;;;;;5096126;28;20277;-73
2023/05/28 05:34:37;;;;;;;13.87;5.67;;;13.60;99.90;;;;;;5096161;28;20054;-72
2023/05/28 05:37:03;;;;;;;15.07;6.03;;;13.70;99.90;;;;;;5062954;28;20278;-72
2023/05/28 05:39:29;;;;;;;15.27;6.10;;;13.90;99.90;;;;;;5095612;28;20629;-72
2023/05/28 05:41:55;;;;;;;18.40;6.27;;;14.10;99.90;;;;;;5113416;28;20621;-72
2023/05/28 05:44:21;;;;;;;19.63;6.87;;;14.30;99.90;;;;;;5113840;28;20281;-72
2023/05/28 05:46:47;;;;;;;18.73;6.23;;;14.60;99.90;;;;;;5114103;28;20088;-72
2023/05/28 05:49:13;;;;;;;13.80;5.70;;;15.40;99.90;;;;;;5095860;28;20134;-73
2023/05/28 05:51:39;;;;;;;16.23;6.93;;;16.40;99.90;;;;;;5114101;28;20141;-72
2023/05/28 05:54:05;;;;;;;13.00;5.17;;;17.30;99.90;;;;;;5096198;28;20650;-72
2023/05/28 05:56:31;;;;;;;11.87;5.23;;;18.20;99.90;;;;;;5113744;28;20050;-72
2023/05/28 05:59:00;;;;;;;13.03;5.27;;;19.10;99.90;;;;;;5095520;28;20383;-72
2023/05/28 06:01:26;;;;;;;13.73;5.10;;;19.60;99.90;;;;;;5113585;28;20407;-72
2023/05/28 06:03:52;;;;;;;10.83;5.00;;;20.10;99.90;;;;;;5113799;28;20040;-72
2023/05/28 06:06:18;;;;;;;14.93;5.93;;;20.60;99.90;;;;;;5113641;28;20097;-72
2023/05/28 06:08:43;;;;;;;10.53;4.50;;;21.30;99.90;;;;;;5095601;28;20052;-72
2023/05/28 06:11:09;;;;;;;14.37;5.30;;;21.50;99.90;;;;;;5095772;28;20552;-73
2023/05/28 06:13:36;;;;;;;12.57;4.77;;;21.80;99.90;;;;;;5113354;28;20511;-72
2023/05/28 06:16:03;;;;;;;11.47;5.17;;;22.10;99.90;;;;;;5113703;28;20439;-72
2023/05/28 06:18:32;;;;;;;15.13;5.03;;;22.50;99.90;;;;;;5077752;28;20051;-73
2023/05/28 06:20:58;;;;;;;11.57;4.30;;;22.50;99.90;;;;;;5095789;28;20082;-72
2023/05/28 06:23:25;;;;;;;10.70;4.60;;;22.40;99.90;;;;;;5095258;28;20047;-73
2023/05/28 06:25:51;;;;;;;10.77;5.00;;;22.80;99.90;;;;;;5113509;28;20043;-73
2023/05/28 06:28:16;;;;;;;10.80;4.67;;;23.20;99.40;;;;;;5113275;28;20114;-73
2023/05/28 06:30:42;;;;;;;14.93;4.63;;;23.70;93.00;;;;;;5113421;28;20126;-73
2023/05/28 06:33:09;;;;;;;10.90;5.00;;;23.80;94.50;;;;;;5113595;28;20051;-73
2023/05/28 06:35:35;;;;;;;12.30;4.20;;;23.80;92.80;;;;;;5094995;28;20047;-73
2023/05/28 06:38:01;;;;;;;13.80;4.87;;;23.70;90.60;;;;;;5113392;28;20044;-73
2023/05/28 06:40:27;;;;;;;12.57;4.33;;;23.50;90.40;;;;;;5113068;28;20497;-72
2023/05/28 06:42:53;;;;;;;11.20;4.33;;;23.50;90.20;;;;;;5113269;28;20130;-72
2023/05/28 06:45:19;;;;;;;8.27;4.57;;;23.60;85.20;;;;;;5095105;28;20055;-73
2023/05/28 06:47:47;;;;;;;11.40;4.60;;;23.90;85.00;;;;;;5095546;28;20042;-73
2023/05/28 06:50:13;;;;;;;11.50;5.03;;;24.50;79.80;;;;;;5095283;28;20459;-72
2023/05/28 06:52:39;;;;;;;13.97;5.63;;;24.80;71.50;;;;;;5114149;28;20044;-72
2023/05/28 06:55:05;;;;;;;11.20;4.73;;;24.90;71.20;;;;;;5117443;28;20445;-72
2023/05/28 06:57:36;;;;;;;15.60;5.33;;;25.00;68.50;;;;;;5117095;28;20135;-72
2023/05/28 07:00:09;;;;;;;10.63;5.00;;;24.70;65.90;;;;;;5117591;28;20044;-73
2023/05/28 07:02:35;;;;;;;12.87;4.97;;;24.90;63.70;;;;;;5117116;28;20398;-74
2023/05/28 07:05:04;;;;;;;9.97;4.70;;;25.00;65.90;;;;;;5116962;28;20515;-73
2023/05/28 07:07:30;;;;;;;12.13;4.60;;;25.40;63.60;;;;;;5098727;28;20043;-75
2023/05/28 07:09:56;;;;;;;9.10;4.20;;;25.70;60.50;;;;;;5099211;28;20483;-75
2023/05/28 07:12:22;;;;;;;12.33;5.03;;;26.00;57.20;;;;;;5116577;28;20093;-75
2023/05/28 07:14:48;;;;;;;10.90;4.30;;;25.80;52.70;;;;;;5117033;28;20567;-75
2023/05/28 07:17:14;;;;;;;12.73;4.70;;;26.00;52.20;;;;;;5116982;28;20092;-75
2023/05/28 07:19:40;;;;;;;11.07;4.67;;;26.50;52.40;;;;;;5081243;28;20060;-75
2023/05/28 07:22:06;;;;;;;9.23;4.53;;;26.50;51.40;;;;;;5076189;28;20470;-75
2023/05/28 07:24:31;;;;;;;12.10;4.67;;;27.00;51.10;;;;;;5075919;28;20564;-75
2023/05/28 07:26:57;;;;;;;9.13;4.50;;;27.40;48.60;;;;;;5076033;28;20119;-75
2023/05/28 07:29:23;;;;;;;9.20;4.70;;;27.20;47.60;;;;;;5075810;28;20044;-75
2023/05/28 07:31:49;;;;;;;9.53;5.10;;;26.90;48.20;;;;;;5075991;28;20044;-74
2023/05/28 07:34:14;;;;;;;10.33;4.80;;;26.70;48.20;;;;;;5074976;28;20044;-74
2023/05/28 07:36:40;;;;;;;8.45;4.18;;;26.50;48.30;;;;;;5075336;28;20946;-74
2023/05/28 07:39:06;;;;;;;11.33;4.87;;;26.80;47.70;;;;;;5075799;28;20131;-74
2023/05/28 07:41:31;;;;;;;11.57;5.00;;;26.80;47.60;;;;;;5075563;28;20044;-74
2023/05/28 07:43:57;;;;;;;9.90;4.28;;;27.10;47.10;;;;;;5075461;28;20190;-74
2023/05/28 07:46:23;;;;;;;7.32;3.75;;;27.00;46.50;;;;;;5075464;28;20044;-77
2023/05/28 07:48:49;;;;;;;12.18;4.35;;;26.90;46.50;;;;;;5075678;28;20149;-75
2023/05/28 07:51:17;;;;;;;7.40;4.03;;;27.20;45.40;;;;;;5075653;28;20092;-74
2023/05/28 07:53:43;;;;;;;8.48;4.50;;;27.10;43.40;;;;;;5075434;28;20389;-74
2023/05/28 07:56:09;;;;;;;7.55;4.47;;;27.00;42.80;;;;;;5075574;28;20454;-74
2023/05/28 07:58:35;;;;;;;8.65;4.07;;;26.90;41.80;;;;;;5075174;28;20130;-74
2023/05/28 08:01:01;;;;;;;8.68;4.70;;;26.80;42.10;;;;;;5075547;28;20044;-74
2023/05/28 08:03:27;;;;;;;7.55;3.70;;;27.20;42.10;;;;;;5074910;28;20113;-74
2023/05/28 08:05:54;;;;;;;9.15;4.70;;;27.60;41.60;;;;;;5074610;28;20448;-73
2023/05/28 08:08:19;;;;;;;8.02;3.75;;;27.50;41.10;;;;;;5074325;28;20036;-74
2023/05/28 08:10:45;;;;;;;8.43;3.92;;;27.70;41.10;;;;;;5075042;28;20519;-75
2023/05/28 08:13:11;;;;;;;9.45;4.03;;;27.90;41.30;;;;;;5075377;28;20109;-74
2023/05/28 08:15:37;;;;;;;10.63;4.47;;;28.40;40.80;;;;;;5073880;28;20365;-74
2023/05/28 08:18:02;;;;;;;6.75;4.20;;;28.90;40.10;;;;;;5075106;28;20139;-73
2023/05/28 08:20:29;;;;;;;8.07;4.18;;;29.00;39.60;;;;;;5114969;28;20063;-74
2023/05/28 08:22:55;;;;;;;6.63;3.75;;;28.40;39.00;;;;;;5112569;28;20089;-73
2023/05/28 08:25:21;;;;;;;7.25;3.95;;;28.20;39.20;;;;;;5115231;28;20495;-74
2023/05/28 08:27:46;;;;;;;7.65;3.88;;;28.00;39.00;;;;;;5122285;27;20042;-73
2023/05/28 08:30:12;;;;;;;6.50;4.03;;;27.80;38.60;;;;;;5115213;28;20039;-74
2023/05/28 08:32:38;;;;;;;9.95;4.60;;;28.10;38.70;;;;;;5097266;28;20475;-74
2023/05/28 08:35:04;;;;;;;7.65;3.70;;;27.90;37.60;;;;;;5115060;28;20047;-73
2023/05/28 08:37:30;;;;;;;7.40;4.28;;;27.50;38.30;;;;;;5114841;28;20264;-75
2023/05/28 08:39:55;;;;;;;7.45;4.13;;;27.10;38.60;;;;;;5114953;28;20541;-75
2023/05/28 08:42:21;;;;;;;7.85;3.65;;;26.70;38.90;;;;;;5122653;27;20390;-73
2023/05/28 08:44:47;;;;;;;6.88;4.05;;;25.60;38.80;;;;;;5114706;28;20075;-73
2023/05/28 08:47:14;;;;;;;6.88;4.00;;;24.70;38.70;;;;;;5114900;28;20044;-73
2023/05/28 08:49:51;;;;;;;7.72;4.45;;;24.10;40.10;;;;;;5096540;28;20542;-73
2023/05/28 08:52:19;;;;;;;7.82;4.05;;;23.80;41.50;;;;;;5112476;28;20051;-73
2023/05/28 08:54:46;;;;;;;7.75;4.45;;;23.30;40.80;;;;;;5114525;28;20051;-73
2023/05/28 08:57:12;;;;;;;7.40;4.63;;;22.90;41.40;;;;;;5096753;28;20495;-73
2023/05/28 08:59:38;;;;;;;7.10;4.37;;;22.60;42.30;;;;;;5096536;28;20113;-74
2023/05/28 09:02:05;;;;;;;7.53;4.53;;;22.50;43.00;;;;;;5080478;28;20138;-73
2023/05/28 09:04:30;;;;;;;8.27;4.90;;;22.20;43.40;;;;;;5114934;28;20509;-70
2023/05/28 09:06:56;;;;;;;7.90;4.87;;;22.00;43.70;;;;;;5114308;28;20126;-73
2023/05/28 09:09:24;;;;;;;8.63;4.87;;;21.70;43.50;;;;;;5096940;28;20082;-73
2023/05/28 09:11:49;;;;;;;9.00;4.83;;;21.50;44.40;;;;;;5114711;28;20048;-73
2023/05/28 09:14:19;;;;;;;7.87;4.97;;;21.40;45.30;;;;;;5114711;28;20126;-73
2023/05/28 09:16:45;;;;;;;9.13;5.70;;;21.30;45.20;;;;;;5114258;28;20063;-73
2023/05/28 09:19:15;;;;;;;9.10;5.63;;;21.10;43.90;;;;;;5114420;28;20162;-73
2023/05/28 09:21:57;;;;;;;9.93;5.80;;;20.90;44.40;;;;;;5114031;28;20542;-73
2023/05/28 09:24:25;;;;;;;8.53;5.50;;;20.80;45.50;;;;;;5114534;28;20047;-73
2023/05/28 09:26:55;;;;;;;9.83;5.33;;;20.70;46.20;;;;;;5114239;28;20108;-73
2023/05/28 09:29:22;;;;;;;10.37;6.23;;;20.70;46.60;;;;;;5114455;28;20043;-73
2023/05/28 09:31:58;;;;;;;8.93;5.63;;;20.70;47.20;;;;;;5113835;28;20518;-73
2023/05/28 09:34:27;;;;;;;10.47;6.33;;;20.70;47.10;;;;;;5114422;28;20190;-73
2023/05/28 09:36:58;;;;;;;9.87;5.57;;;20.60;47.00;;;;;;5114025;28;20052;-73
2023/05/28 09:39:26;;;;;;;9.20;6.03;;;20.60;47.50;;;;;;5114270;28;20087;-73
2023/05/28 09:42:09;;;;;;;12.70;6.87;;;20.60;47.30;;;;;;5096170;28;20487;-73
2023/05/28 09:44:36;;;;;;;12.13;6.53;;;20.70;46.70;;;;;;5114325;28;20391;-73
2023/05/28 09:47:15;;;;;;;11.80;6.90;;;20.90;47.20;;;;;;5113896;28;20051;-73
2023/05/28 09:49:46;;;;;;;11.40;7.17;;;20.90;46.30;;;;;;5114022;28;20115;-71
2023/05/28 09:52:22;;;;;;;9.57;6.40;;;20.80;46.50;;;;;;5114163;28;20050;-71
2023/05/28 09:54:55;;;;;;;11.17;6.47;;;20.80;47.20;;;;;;5079039;28;20040;-72
2023/05/28 09:57:29;;;;;;;12.67;6.43;;;20.70;47.20;;;;;;5113743;28;20491;-74
2023/05/28 09:59:55;;;;;;;10.98;7.00;;;20.60;46.20;;;;;;5113734;28;20114;-74
2023/05/28 10:02:41;;;;;;;14.37;7.43;;;20.60;46.80;;;;;;5113907;28;20538;-73
2023/05/28 10:05:08;;;;;;;11.27;7.10;;;20.60;45.20;;;;;;5096007;28;20514;-74
2023/05/28 10:07:35;;;;;;;12.87;8.00;;;20.50;45.90;;;;;;5113942;28;20372;-73
2023/05/28 10:10:01;;;;;;;11.87;7.10;;;20.40;45.70;;;;;;5095713;28;20043;-74
2023/05/28 10:12:31;;;;;;;12.87;7.00;;;20.40;45.90;;;;;;5113914;28;20396;-74
2023/05/28 10:14:57;;;;;;;11.37;6.77;;;20.30;46.80;;;;;;5113423;28;20048;-74
2023/05/28 10:17:23;;;;;;;11.23;7.00;;;20.40;47.40;;;;;;5113649;28;20051;-74
2023/05/28 10:19:49;;;;;;;10.77;7.03;;;20.30;47.20;;;;;;5076458;28;20122;-74
2023/05/28 10:22:16;;;;;;;10.07;6.93;;;20.40;47.30;;;;;;5072195;28;20453;-74
2023/05/28 10:24:44;;;;;;;10.43;6.40;;;20.30;47.10;;;;;;5073052;28;20118;-74
2023/05/28 10:27:16;;;;;;;9.87;5.87;;;20.40;46.00;;;;;;5072335;28;20044;-73
2023/05/28 10:29:45;;;;;;;9.80;5.70;;;20.30;45.60;;;;;;5073028;28;20056;-74
2023/05/28 10:32:14;;;;;;;11.53;6.20;;;20.40;45.60;;;;;;5073011;28;20078;-74
2023/05/28 10:34:41;;;;;;;10.90;5.97;;;20.20;45.20;;;;;;5072994;28;20526;-74
2023/05/28 10:37:08;;;;;;;9.00;5.40;;;20.20;45.30;;;;;;5072672;28;20127;-75
2023/05/28 10:39:38;;;;;;;8.77;5.13;;;20.20;45.90;;;;;;5071649;28;20052;-72
2023/05/28 10:42:08;;;;;;;7.73;4.70;;;20.20;46.00;;;;;;5072472;28;20055;-73
2023/05/28 10:45:07;;;;;;;8.03;4.60;;;20.20;45.10;;;;;;5072713;28;20080;-73
2023/05/28 10:47:35;;;;;;;7.73;4.50;;;20.10;44.60;;;;;;5072913;28;20048;-73
2023/05/28 10:50:10;;;;;;;9.30;4.27;;;20.10;44.90;;;;;;5071554;28;20455;-73
2023/05/28 10:52:36;;;;;;;6.83;3.60;;;20.10;45.20;;;;;;5072898;28;20047;-74
2023/05/28 10:55:08;;;;;;;7.73;3.90;;;20.20;46.10;;;;;;5071438;28;20048;-73
2023/05/28 10:57:44;;;;;;;9.97;4.10;;;20.20;46.90;;;;;;5071665;28;20089;-73
2023/05/28 11:00:14;;;;;;;10.23;4.43;;;20.20;47.50;;;;;;5072458;28;20076;-73
2023/05/28 11:02:44;;;;;;;9.27;3.37;;;20.20;47.60;;;;;;5071515;28;20381;-72
2023/05/28 11:05:10;;;;;;;7.40;3.53;;;20.20;48.70;;;;;;5072435;28;20049;-72
2023/05/28 11:07:41;;;;;;;8.93;3.63;;;20.20;49.50;;;;;;5072671;28;20087;-73
2023/05/28 11:10:14;;;;;;;7.77;3.83;;;20.20;50.00;;;;;;5072313;28;20110;-71
2023/05/28 11:12:42;;;;;;;7.18;3.28;;;20.20;50.40;;;;;;5072256;28;20405;-72
2023/05/28 11:15:10;;;;;;;10.17;3.83;;;20.20;50.70;;;;;;5071318;28;20056;-72
2023/05/28 11:17:38;;;;;;;6.90;3.37;;;20.20;51.20;;;;;;5054905;28;20078;-72
2023/05/28 11:20:05;;;;;;;9.90;4.07;;;20.30;51.30;;;;;;5106026;28;20060;-72
2023/05/28 11:22:37;;;;;;;8.70;3.70;;;20.40;51.60;;;;;;5113007;28;20050;-72
2023/05/28 11:25:08;;;;;;;8.90;3.90;;;20.40;52.10;;;;;;5077800;28;20130;-73
2023/05/28 11:27:37;;;;;;;10.17;3.93;;;20.40;52.40;;;;;;5113097;28;20144;-74
2023/05/28 11:30:09;;;;;;;8.90;3.60;;;20.40;52.70;;;;;;5094525;28;20040;-74
2023/05/28 11:32:35;;;;;;;10.50;3.87;;;20.40;53.00;;;;;;5112940;28;20043;-74
2023/05/28 11:35:01;;;;;;;7.53;3.03;;;20.40;53.40;;;;;;5094529;28;20055;-73
2023/05/28 11:37:28;;;;;;;8.80;3.90;;;20.40;54.10;;;;;;5094837;28;20058;-73
2023/05/28 11:39:56;;;;;;;7.77;3.17;;;20.40;54.50;;;;;;5115527;28;20440;-74
2023/05/28 11:42:23;;;;;;;9.23;4.17;;;20.30;54.70;;;;;;5116621;28;20044;-73
2023/05/28 11:44:53;;;;;;;11.07;4.03;;;20.20;56.30;;;;;;5098640;28;20045;-73
2023/05/28 11:47:19;;;;;;;8.57;3.50;;;20.10;58.20;;;;;;5116744;28;20051;-74
2023/05/28 11:49:46;;;;;;;8.50;3.70;;;20.20;61.70;;;;;;5116482;28;20067;-73
2023/05/28 11:52:12;;;;;;;8.53;4.23;;;20.10;63.20;;;;;;5098169;28;20079;-74
2023/05/28 11:54:41;;;;;;;10.10;3.80;;;20.00;65.40;;;;;;5098405;28;20048;-74
2023/05/28 11:57:08;;;;;;;11.37;4.57;;;20.00;66.70;;;;;;5115689;28;20556;-74
2023/05/28 11:59:34;;;;;;;8.40;3.80;;;19.90;67.90;;;;;;5116241;28;20043;-73
2023/05/28 12:02:15;;;;;;;10.10;3.90;;;19.70;70.90;;;;;;5081194;28;20126;-72
2023/05/28 12:05:02;;;;;;;9.17;3.60;;;19.60;75.50;;;;;;5116127;28;20055;-72
2023/05/28 12:07:29;;;;;;;8.73;3.63;;;19.70;81.40;;;;;;5116415;28;20050;-72
2023/05/28 12:10:22;;;;;;;9.80;4.10;;;19.80;83.10;;;;;;5116045;28;20122;-72
2023/05/28 12:12:50;;;;;;;8.63;3.83;;;19.70;82.60;;;;;;5093665;28;20060;-73
2023/05/28 12:15:16;;;;;;;9.37;4.57;;;19.70;85.90;;;;;;5081045;28;20100;-77
2023/05/28 12:17:46;;;;;;;9.70;4.23;;;19.70;86.80;;;;;;5097950;28;20483;-78
2023/05/28 12:20:14;;;;;;;12.97;4.13;;;19.60;90.40;;;;;;5097007;28;20056;-76
2023/05/28 12:22:41;;;;;;;12.60;4.07;;;19.50;90.80;;;;;;5116017;28;20108;-73
2023/05/28 12:25:07;;;;;;;11.60;3.87;;;19.50;91.20;;;;;;5115515;28;20036;-73
2023/05/28 12:27:36;;;;;;;14.20;5.10;;;19.40;92.40;;;;;;5115701;28;20039;-73
2023/05/28 12:30:05;;;;;;;9.27;4.03;;;19.30;92.90;;;;;;5115730;28;20079;-73
2023/05/28 12:32:31;;;;;;;12.10;4.63;;;19.30;93.10;;;;;;5115672;28;20080;-73
2023/05/28 12:34:57;;;;;;;9.03;3.73;;;19.40;93.20;;;;;;5115682;28;20118;-73
2023/05/28 12:37:23;;;;;;;10.53;4.07;;;19.40;93.60;;;;;;5115294;28;20493;-73
2023/05/28 12:39:50;;;;;;;13.17;3.80;;;19.50;94.00;;;;;;5063767;28;20131;-73
2023/05/28 12:42:16;;;;;;;11.77;3.97;;;19.50;94.20;;;;;;5115245;28;20091;-74